Time;durP1;ratioP1;P1;durP2;ratioP2;P2;SDS_P1;SDS_P2;PMS_P1;PMS_P2;Temp;Humidity;BMP_temperature;BMP_pressure;BME280_temperature;BME280_humidity;BME280_pressure;Samples;Min_cycle;Max_cycle;Signal;HPM_P1;HPM_P2
2023/01/05 00:00:46;;;;;;;;;;;;;;;13.07;84.88;101465.03;7360684;19;19943;-68
2023/01/05 00:03:13;;;;;;;;;;;;;;;13.07;84.77;101466.81;7360076;19;19930;-68
2023/01/05 00:05:40;;;;;;;;;;;;;;;13.07;85.08;101475.59;7359218;19;20242;-67
2023/01/05 00:08:07;;;;;;;;;;;;;;;13.11;86.02;101476.09;7357105;19;19923;-67
2023/01/05 00:23:12;;;;;;;;;;;;;;;12.98;84.66;101484.44;7357854;19;20386;-67
2023/01/05 00:25:39;;;;;;;;;;;;;;;12.98;84.69;101486.25;7359442;19;19960;-67
2023/01/05 00:28:07;;;;;;;;;;;;;;;12.97;84.34;101484.56;7358227;19;20002;-67
2023/01/05 00:30:37;;;;;;;;;;;;;;;12.95;84.25;101489.19;7356351;19;20287;-67
2023/01/05 00:33:06;;;;;;;;;;;;;;;12.93;84.59;101488.50;7359956;19;19946;-67
2023/01/05 00:35:34;;;;;;;;;;;;;;;12.92;84.29;101487.69;7356611;19;19919;-69
2023/01/05 00:38:01;;;;;;;;;;;;;;;12.90;84.27;101481.69;7355295;19;20384;-68
2023/01/05 00:40:28;;;;;;;;;;;;;;;12.90;84.38;101476.41;7360241;19;20612;-68
2023/01/05 00:42:55;;;;;;;;;;;;;;;12.91;84.98;101479.91;7362657;19;19970;-68
2023/01/05 00:45:22;;;;;;;;;;;;;;;12.89;84.64;101482.72;7358890;19;19954;-67
2023/01/05 00:47:50;;;;;;;;;;;;;;;12.88;84.51;101486.31;7359913;19;20263;-68
2023/01/05 00:50:17;;;;;;;;;;;;;;;12.85;84.16;101487.44;7356402;19;21543;-68
2023/01/05 00:52:45;;;;;;;;;;;;;;;12.85;84.18;101497.16;7356070;19;20141;-68
2023/01/05 00:55:12;;;;;;;;;;;;;;;12.88;84.02;101498.69;7357897;19;19964;-67
2023/01/05 00:57:39;;;;;;;;;;;;;;;12.86;83.68;101494.38;7358113;19;19911;-67
2023/01/05 01:00:09;;;;;;;;;;;;;;;12.85;83.79;101489.25;7357684;19;19943;-67
2023/01/05 01:02:36;;;;;;;;;;;;;;;12.84;84.05;101490.25;7357691;19;20377;-67
2023/01/05 01:05:04;;;;;;;;;;;;;;;12.85;83.71;101499.81;7357375;19;19956;-68
2023/01/05 01:07:31;;;;;;;;;;;;;;;12.88;84.19;101496.06;7356473;19;19939;-67
2023/01/05 01:09:58;;;;;;;;;;;;;;;12.89;84.35;101498.56;7356971;19;19960;-67
2023/01/05 01:12:25;;;;;;;;;;;;;;;12.88;83.60;101498.69;7356903;19;19933;-66
2023/01/05 01:14:52;;;;;;;;;;;;;;;12.87;83.55;101497.88;7359168;19;20304;-67
2023/01/05 01:17:19;;;;;;;;;;;;;;;12.87;84.38;101500.50;7355904;19;19925;-67
2023/01/05 01:19:47;;;;;;;;;;;;;;;12.86;83.85;101506.75;7358039;19;20297;-67
2023/01/05 01:22:14;;;;;;;;;;;;;;;12.84;83.75;101506.09;7352752;19;20037;-68
2023/01/05 01:24:41;;;;;;;;;;;;;;;12.86;84.22;101510.25;7356049;19;19990;-68
2023/01/05 01:27:08;;;;;;;;;;;;;;;12.86;84.00;101517.31;7359012;19;20526;-67
2023/01/05 01:29:35;;;;;;;;;;;;;;;12.84;83.46;101516.66;7357234;19;19930;-68
2023/01/05 01:32:02;;;;;;;;;;;;;;;12.83;83.92;101522.91;7355916;19;19926;-67
2023/01/05 01:34:30;;;;;;;;;;;;;;;12.83;84.49;101533.50;7353110;19;20746;-66
2023/01/05 01:36:57;;;;;;;;;;;;;;;12.83;84.20;101528.22;7353574;19;19919;-68
2023/01/05 01:39:24;;;;;;;;;;;;;;;12.83;83.94;101525.56;7358992;19;20859;-67
2023/01/05 01:41:52;;;;;;;;;;;;;;;12.82;84.06;101531.81;7357021;19;19918;-67
2023/01/05 01:44:22;;;;;;;;;;;;;;;12.80;83.84;101534.59;7356108;19;20757;-67
2023/01/05 01:46:49;;;;;;;;;;;;;;;12.81;83.62;101549.47;7357220;19;20275;-67
2023/01/05 01:49:16;;;;;;;;;;;;;;;12.79;83.83;101540.88;7357414;19;19922;-67
2023/01/05 01:51:45;;;;;;;;;;;;;;;12.76;83.29;101541.16;7351480;19;19922;-67
2023/01/05 01:54:16;;;;;;;;;;;;;;;12.74;83.47;101542.31;7355429;19;20555;-67
2023/01/05 01:56:46;;;;;;;;;;;;;;;12.73;84.44;101545.94;7356717;19;19923;-67
2023/01/05 01:59:14;;;;;;;;;;;;;;;12.72;84.50;101546.91;7357497;19;19923;-68
2023/01/05 02:01:41;;;;;;;;;;;;;;;12.70;84.44;101544.41;7354539;19;19918;-67
2023/01/05 02:04:09;;;;;;;;;;;;;;;12.70;84.87;101548.84;7356758;19;19978;-67
2023/01/05 02:06:37;;;;;;;;;;;;;;;12.69;84.55;101544.56;7354475;19;20495;-68
2023/01/05 02:09:05;;;;;;;;;;;;;;;12.67;84.04;101547.34;7356316;19;19994;-67
2023/01/05 02:11:35;;;;;;;;;;;;;;;12.68;84.29;101549.00;7356035;19;19918;-67
2023/01/05 02:14:05;;;;;;;;;;;;;;;12.66;84.61;101558.88;7356345;19;19926;-67
2023/01/05 02:16:35;;;;;;;;;;;;;;;12.65;84.44;101564.31;7348122;19;19919;-69
2023/01/05 02:19:05;;;;;;;;;;;;;;;12.66;84.60;101558.03;7355716;19;20434;-67
2023/01/05 02:21:34;;;;;;;;;;;;;;;12.65;85.05;101556.38;7352327;19;20026;-67
2023/01/05 02:24:02;;;;;;;;;;;;;;;12.63;84.95;101551.28;7356718;19;19926;-67
2023/01/05 02:26:32;;;;;;;;;;;;;;;12.65;85.21;101556.38;7356228;19;20785;-67
2023/01/05 02:29:10;;;;;;;;;;;;;;;12.66;85.27;101547.50;7355487;19;20363;-67
2023/01/05 02:31:38;;;;;;;;;;;;;;;12.66;85.08;101550.97;7353772;19;20438;-67
2023/01/05 02:34:08;;;;;;;;;;;;;;;12.67;84.59;101546.50;7355741;19;20203;-67
2023/01/05 02:36:41;;;;;;;;;;;;;;;12.67;85.41;101549.16;7351825;19;19919;-67
2023/01/05 02:39:09;;;;;;;;;;;;;;;12.67;85.43;101551.78;7353182;19;19927;-68
2023/01/05 02:41:39;;;;;;;;;;;;;;;12.64;85.03;101557.38;7356994;19;19915;-67
2023/01/05 02:44:07;;;;;;;;;;;;;;;12.64;85.72;101562.66;7355780;19;20316;-67
2023/01/05 02:46:34;;;;;;;;;;;;;;;12.64;86.08;101565.31;7355787;19;19927;-67
2023/01/05 02:49:03;;;;;;;;;;;;;;;12.63;86.03;101569.75;7354539;19;20388;-68
2023/01/05 02:51:33;;;;;;;;;;;;;;;12.63;86.55;101571.56;7348790;19;19922;-68
2023/01/05 02:54:05;;;;;;;;;;;;;;;12.64;86.88;101576.69;7355499;19;20481;-67
2023/01/05 02:56:36;;;;;;;;;;;;;;;12.64;86.68;101574.06;7352202;19;19926;-67
2023/01/05 02:59:07;;;;;;;;;;;;;;;12.65;86.05;101577.50;7355544;19;19953;-66
2023/01/05 03:01:38;;;;;;;;;;;;;;;12.65;86.16;101583.63;7352200;19;20617;-68
2023/01/05 03:04:08;;;;;;;;;;;;;;;12.67;86.02;101580.84;7356236;19;19923;-67
2023/01/05 03:06:45;;;;;;;;;;;;;;;12.68;85.81;101574.59;7349086;19;20345;-68
2023/01/05 03:09:14;;;;;;;;;;;;;;;12.69;86.29;101577.09;7356081;19;19923;-68
2023/01/05 03:14:19;;;;;;;;;;;;;;;12.64;85.71;101584.63;7354770;19;20006;-68
2023/01/05 03:16:48;;;;;;;;;;;;;;;12.67;85.90;101588.75;7353863;19;20275;-67
2023/01/05 03:36:59;;;;;;;;;;;;;;;12.65;86.79;101590.72;7356950;19;20532;-67
2023/01/05 03:39:29;;;;;;;;;;;;;;;12.67;86.60;101586.94;7361124;19;21389;-68
2023/01/05 03:41:56;;;;;;;;;;;;;;;12.67;86.65;101584.31;7360446;19;19949;-67
2023/01/05 03:44:23;;;;;;;;;;;;;;;12.70;87.42;101588.44;7361019;19;20632;-67
2023/01/05 03:46:51;;;;;;;;;;;;;;;12.70;87.64;101589.28;7358116;19;20051;-67
2023/01/05 03:49:18;;;;;;;;;;;;;;;12.71;87.06;101587.47;7362120;19;21738;-66
2023/01/05 03:51:45;;;;;;;;;;;;;;;12.74;87.41;101584.56;7357146;19;19914;-68
2023/01/05 03:54:12;;;;;;;;;;;;;;;12.73;87.17;101591.66;7361122;19;20783;-67
2023/01/05 03:56:39;;;;;;;;;;;;;;;12.72;86.36;101584.69;7358204;19;19923;-68
2023/01/05 03:59:06;;;;;;;;;;;;;;;12.70;86.45;101588.44;7357598;19;19911;-67
2023/01/05 04:01:33;;;;;;;;;;;;;;;12.70;86.96;101593.72;7361564;19;19918;-68
2023/01/05 04:04:00;;;;;;;;;;;;;;;12.70;86.93;101593.72;7359174;19;19915;-67
2023/01/05 04:06:27;;;;;;;;;;;;;;;12.70;86.94;101591.94;7355329;19;20289;-67
2023/01/05 04:08:54;;;;;;;;;;;;;;;12.67;87.02;101592.22;7359283;19;19929;-68
2023/01/05 04:11:22;;;;;;;;;;;;;;;12.66;86.53;101598.50;7359940;19;19932;-67
2023/01/05 04:13:49;;;;;;;;;;;;;;;12.65;86.51;101595.97;7361609;19;19949;-67
2023/01/05 04:16:17;;;;;;;;;;;;;;;12.63;86.86;101601.44;7360047;19;19915;-68
2023/01/05 04:18:44;;;;;;;;;;;;;;;12.65;87.69;101598.63;7355813;19;19947;-68
2023/01/05 04:21:11;;;;;;;;;;;;;;;12.65;87.52;101606.53;7358177;19;19930;-66
2023/01/05 04:23:38;;;;;;;;;;;;;;;12.58;86.51;101606.31;7355776;19;19977;-67
2023/01/05 04:26:05;;;;;;;;;;;;;;;12.54;86.91;101601.50;7358141;19;20796;-67
2023/01/05 04:28:32;;;;;;;;;;;;;;;12.51;86.95;101613.16;7360757;19;19931;-67
2023/01/05 04:30:59;;;;;;;;;;;;;;;12.49;86.82;101615.13;7357982;19;20859;-67
2023/01/05 04:33:27;;;;;;;;;;;;;;;12.47;87.19;101617.06;7357898;19;19923;-68
2023/01/05 04:35:54;;;;;;;;;;;;;;;12.47;87.51;101618.88;7355463;19;19914;-67
2023/01/05 04:38:21;;;;;;;;;;;;;;;12.44;87.34;101625.28;7356045;19;19923;-68
2023/01/05 04:40:49;;;;;;;;;;;;;;;12.43;87.52;101616.53;7358148;19;19943;-68
2023/01/05 04:43:17;;;;;;;;;;;;;;;12.48;88.40;101625.81;7358016;19;19923;-67
2023/01/05 04:45:46;;;;;;;;;;;;;;;12.47;88.68;101619.72;7354977;19;19922;-67
2023/01/05 04:48:13;;;;;;;;;;;;;;;12.48;88.25;101620.53;7357370;19;19931;-66
2023/01/05 04:50:40;;;;;;;;;;;;;;;12.48;87.98;101617.91;7358279;19;19927;-68
2023/01/05 04:53:07;;;;;;;;;;;;;;;12.47;87.88;101619.72;7358442;19;20357;-67
2023/01/05 04:55:34;;;;;;;;;;;;;;;12.48;87.67;101620.53;7356838;19;19923;-67
2023/01/05 04:58:03;;;;;;;;;;;;;;;12.48;87.46;101625.81;7355835;19;19926;-67
2023/01/05 05:00:37;;;;;;;;;;;;;;;12.46;87.59;101623.31;7357800;19;20328;-67
2023/01/05 05:03:04;;;;;;;;;;;;;;;12.44;87.53;101620.81;7359224;19;21043;-67
2023/01/05 05:05:32;;;;;;;;;;;;;;;12.42;87.89;101614.88;7355128;19;20027;-68
2023/01/05 05:07:59;;;;;;;;;;;;;;;12.39;87.87;101617.78;7354129;19;19982;-67
2023/01/05 05:10:26;;;;;;;;;;;;;;;12.39;88.03;101619.63;7357012;19;20301;-67
2023/01/05 05:12:53;;;;;;;;;;;;;;;12.36;87.79;101620.72;7357513;19;19998;-67
2023/01/05 05:15:20;;;;;;;;;;;;;;;12.32;88.05;101618.50;7355482;19;20714;-68
2023/01/05 05:17:47;;;;;;;;;;;;;;;12.30;88.90;101618.66;7356430;19;19923;-67
2023/01/05 05:20:15;;;;;;;;;;;;;;;12.27;89.01;101618.94;7357478;19;20223;-68
2023/01/05 05:22:42;;;;;;;;;;;;;;;12.25;88.81;101620.88;7353865;19;19927;-67
2023/01/05 05:25:09;;;;;;;;;;;;;;;12.23;89.52;101614.94;7357468;19;19958;-68
2023/01/05 05:27:36;;;;;;;;;;;;;;;12.21;89.57;101616.88;7358371;19;19951;-67
2023/01/05 05:30:03;;;;;;;;;;;;;;;12.17;89.14;101620.78;7357544;19;19947;-67
2023/01/05 05:32:31;;;;;;;;;;;;;;;12.14;89.55;101621.06;7359085;19;19922;-68
2023/01/05 05:34:58;;;;;;;;;;;;;;;12.14;90.17;101620.25;7354073;19;19918;-66
2023/01/05 05:37:25;;;;;;;;;;;;;;;12.11;89.68;101626.63;7354533;19;19960;-67
2023/01/05 05:39:52;;;;;;;;;;;;;;;12.06;89.49;101628.88;7356867;19;21758;-68
2023/01/05 05:42:19;;;;;;;;;;;;;;;12.06;90.49;101623.59;7358407;19;19923;-67
2023/01/05 05:44:46;;;;;;;;;;;;;;;12.03;90.51;101629.16;7356352;19;19926;-68
2023/01/05 05:47:13;;;;;;;;;;;;;;;12.01;90.20;101625.81;7357388;19;20590;-66
2023/01/05 05:49:40;;;;;;;;;;;;;;;12.02;90.68;101626.66;7356800;19;19923;-67
2023/01/05 05:52:07;;;;;;;;;;;;;;;12.05;90.98;101621.09;7353442;19;19915;-67
2023/01/05 05:54:34;;;;;;;;;;;;;;;12.06;90.96;101628.88;7356289;19;20324;-67
2023/01/05 05:57:01;;;;;;;;;;;;;;;12.10;91.03;101629.41;7356653;19;20785;-67
2023/01/05 05:59:28;;;;;;;;;;;;;;;12.12;91.01;101636.22;7354890;19;20201;-67
2023/01/05 06:01:55;;;;;;;;;;;;;;;12.14;90.61;101630.81;7357567;19;19935;-69
2023/01/05 06:04:22;;;;;;;;;;;;;;;12.16;90.45;101629.69;7356720;19;19911;-67
2023/01/05 06:06:49;;;;;;;;;;;;;;;12.20;90.51;101628.41;7354154;19;19918;-67
2023/01/05 06:09:17;;;;;;;;;;;;;;;12.25;90.46;101638.53;7357173;19;19957;-67
2023/01/05 06:11:44;;;;;;;;;;;;;;;12.29;90.45;101637.28;7356536;19;19926;-66
2023/01/05 06:14:11;;;;;;;;;;;;;;;12.31;89.84;101635.31;7356362;19;19985;-67
2023/01/05 06:16:38;;;;;;;;;;;;;;;12.33;90.19;101634.22;7356629;19;20407;-69
2023/01/05 06:19:06;;;;;;;;;;;;;;;12.35;89.99;101628.78;7353136;19;20315;-67
2023/01/05 06:21:33;;;;;;;;;;;;;;;12.35;89.33;101628.78;7352679;19;19955;-68
2023/01/05 06:24:00;;;;;;;;;;;;;;;12.36;89.65;101638.34;7352790;19;19926;-67
2023/01/05 06:26:27;;;;;;;;;;;;;;;12.40;90.03;101639.72;7356247;19;20502;-67
2023/01/05 06:28:54;;;;;;;;;;;;;;;12.41;89.67;101639.59;7352818;19;20761;-67
2023/01/05 06:31:21;;;;;;;;;;;;;;;12.43;89.88;101639.47;7356481;19;19960;-68
2023/01/05 06:33:49;;;;;;;;;;;;;;;12.46;90.11;101633.88;7356202;19;19923;-68
2023/01/05 06:36:16;;;;;;;;;;;;;;;12.48;90.26;101631.09;7349991;19;19950;-67
2023/01/05 06:38:43;;;;;;;;;;;;;;;12.49;89.90;101630.13;7352551;19;19934;-68
2023/01/05 06:41:10;;;;;;;;;;;;;;;12.53;90.25;101631.50;7356357;19;20317;-69
2023/01/05 06:43:37;;;;;;;;;;;;;;;12.53;90.27;101634.97;7352813;19;19933;-68
2023/01/05 06:46:04;;;;;;;;;;;;;;;12.54;89.86;101631.34;7356562;19;19923;-68
2023/01/05 06:48:32;;;;;;;;;;;;;;;12.54;90.19;101633.16;7355754;19;19922;-67
2023/01/05 06:50:59;;;;;;;;;;;;;;;12.56;90.21;101633.84;7351201;19;19923;-67
2023/01/05 06:53:26;;;;;;;;;;;;;;;12.54;90.03;101626.06;7353550;19;20559;-67
2023/01/05 06:55:53;;;;;;;;;;;;;;;12.55;89.77;101624.25;7355754;19;19987;-67
2023/01/05 06:58:20;;;;;;;;;;;;;;;12.55;89.99;101630.34;7354033;19;21557;-67
2023/01/05 07:00:47;;;;;;;;;;;;;;;12.54;90.03;101622.59;7353255;19;21642;-67
2023/01/05 07:03:14;;;;;;;;;;;;;;;12.55;89.67;101635.63;7356859;19;20872;-68
2023/01/05 07:05:41;;;;;;;;;;;;;;;12.55;89.71;101633.00;7352089;19;19923;-67
2023/01/05 07:08:09;;;;;;;;;;;;;;;12.53;90.05;101624.41;7349880;19;19957;-67
2023/01/05 07:10:36;;;;;;;;;;;;;;;12.52;89.86;101633.31;7352919;19;19926;-67
2023/01/05 07:13:03;;;;;;;;;;;;;;;12.53;89.63;101627.06;7355442;19;19918;-68
2023/01/05 07:15:30;;;;;;;;;;;;;;;12.54;90.39;101630.53;7353837;19;19950;-68
2023/01/05 07:17:57;;;;;;;;;;;;;;;12.55;90.32;101626.88;7353689;19;19923;-68
2023/01/05 07:20:24;;;;;;;;;;;;;;;12.55;90.03;101626.88;7352421;19;20380;-67
2023/01/05 07:22:51;;;;;;;;;;;;;;;12.52;90.14;101620.09;7350170;19;19943;-67
2023/01/05 07:25:18;;;;;;;;;;;;;;;12.49;90.22;101628.31;7351648;19;20264;-67
2023/01/05 07:27:48;;;;;;;;;;;;;;;12.48;89.96;101631.94;7351619;19;19926;-68
2023/01/05 07:30:16;;;;;;;;;;;;;;;12.46;90.41;101625.97;7351101;19;20389;-67
2023/01/05 07:32:43;;;;;;;;;;;;;;;12.51;91.30;101628.16;7352184;19;20474;-67
2023/01/05 07:35:10;;;;;;;;;;;;;;;12.52;91.44;101635.09;7349487;19;20764;-67
2023/01/05 07:37:37;;;;;;;;;;;;;;;12.50;91.27;101632.59;7351245;19;20385;-67
2023/01/05 07:40:04;;;;;;;;;;;;;;;12.50;91.17;101623.84;7350347;19;19926;-68
2023/01/05 07:42:32;;;;;;;;;;;;;;;12.51;91.17;101630.78;7354685;19;21236;-68
2023/01/05 07:44:59;;;;;;;;;;;;;;;12.48;91.08;101634.56;7353128;19;19926;-68
2023/01/05 07:47:26;;;;;;;;;;;;;;;12.46;90.90;101640.97;7354181;19;19970;-68
2023/01/05 07:49:53;;;;;;;;;;;;;;;12.44;91.58;101630.56;7353333;19;20334;-67
2023/01/05 07:52:20;;;;;;;;;;;;;;;12.46;91.45;101635.69;7350747;19;19945;-68
2023/01/05 07:54:47;;;;;;;;;;;;;;;12.48;91.62;101633.75;7353473;19;19926;-67
2023/01/05 07:57:15;;;;;;;;;;;;;;;12.52;92.34;101619.25;7355189;19;19927;-67
2023/01/05 07:59:42;;;;;;;;;;;;;;;12.57;92.68;101623.13;7352015;19;19951;-67
2023/01/05 08:02:09;;;;;;;;;;;;;;;12.60;92.50;101628.13;7353952;19;19990;-68
2023/01/05 08:04:37;;;;;;;;;;;;;;;12.62;92.69;101622.69;7351863;19;19923;-67
2023/01/05 08:07:09;;;;;;;;;;;;;;;12.66;92.95;101624.91;7348740;19;19953;-67
2023/01/05 08:12:08;;;;;;;;;;;;;;;12.65;92.63;101620.59;7352568;19;19951;-67
2023/01/05 08:14:35;;;;;;;;;;;;;;;12.69;93.28;101618.50;7352916;19;19929;-69
2023/01/05 08:17:02;;;;;;;;;;;;;;;12.72;93.34;101618.19;7352394;19;19931;-68
2023/01/05 08:19:29;;;;;;;;;;;;;;;12.72;93.07;101615.56;7353203;19;20549;-68
2023/01/05 08:21:56;;;;;;;;;;;;;;;12.72;93.28;101621.66;7356699;19;20380;-68
2023/01/05 08:24:23;;;;;;;;;;;;;;;12.74;93.31;101626.81;7360463;19;19929;-70
2023/01/05 08:26:50;;;;;;;;;;;;;;;12.76;93.22;101620.38;7357941;19;20521;-68
2023/01/05 08:29:18;;;;;;;;;;;;;;;12.80;93.69;101613.00;7359889;19;19986;-67
2023/01/05 08:31:48;;;;;;;;;;;;;;;12.80;93.86;101621.75;7358401;19;19919;-68
2023/01/05 08:34:15;;;;;;;;;;;;;;;12.81;94.14;101617.31;7359048;19;19939;-67
2023/01/05 08:36:42;;;;;;;;;;;;;;;12.82;94.10;101617.16;7354030;19;19965;-71
2023/01/05 08:39:10;;;;;;;;;;;;;;;12.84;93.69;101609.09;7357110;19;19953;-67
2023/01/05 08:41:38;;;;;;;;;;;;;;;12.88;93.72;101618.38;7358803;19;19918;-67
2023/01/05 08:44:06;;;;;;;;;;;;;;;12.92;94.25;101619.75;7360314;19;20608;-68
2023/01/05 08:46:34;;;;;;;;;;;;;;;12.93;94.71;101616.13;7356324;19;19927;-68
2023/01/05 08:49:03;;;;;;;;;;;;;;;12.96;94.52;101623.75;7360907;19;19922;-67
2023/01/05 08:51:31;;;;;;;;;;;;;;;12.97;94.20;101630.69;7353582;19;19918;-67
2023/01/05 08:53:58;;;;;;;;;;;;;;;12.97;94.37;101627.22;7356283;19;19931;-67
2023/01/05 08:56:25;;;;;;;;;;;;;;;12.98;94.40;101636.81;7357340;19;19930;-69
2023/01/05 08:58:58;;;;;;;;;;;;;;;13.00;94.62;101627.78;7360274;19;19949;-67
2023/01/05 09:01:25;;;;;;;;;;;;;;;13.04;94.48;101631.78;7356957;19;19986;-68
2023/01/05 09:03:52;;;;;;;;;;;;;;;13.08;94.30;101632.31;7358546;19;20229;-67
2023/01/05 09:06:19;;;;;;;;;;;;;;;13.09;94.15;101626.03;7355579;19;19944;-67
2023/01/05 09:08:47;;;;;;;;;;;;;;;13.16;95.41;101627.13;7357941;19;19922;-68
2023/01/05 09:11:16;;;;;;;;;;;;;;;13.25;96.42;101624.44;7356067;19;20676;-67
2023/01/05 09:13:46;;;;;;;;;;;;;;;13.33;96.78;101620.19;7356292;19;20230;-68
2023/01/05 09:16:14;;;;;;;;;;;;;;;13.33;95.79;101613.09;7360167;19;19923;-67
2023/01/05 09:19:03;;;;;;;;;;;;;;;13.34;94.80;101616.56;7357132;19;19931;-68
2023/01/05 09:21:30;;;;;;;;;;;;;;;13.34;94.24;101619.22;7356426;19;21569;-66
2023/01/05 09:23:58;;;;;;;;;;;;;;;13.34;94.46;101614.75;7358241;19;19923;-68
2023/01/05 09:26:25;;;;;;;;;;;;;;;13.38;94.50;101617.94;7360475;19;19925;-67
2023/01/05 09:28:52;;;;;;;;;;;;;;;13.36;94.19;101614.63;7357004;19;19966;-69
2023/01/05 09:31:20;;;;;;;;;;;;;;;13.36;93.90;101609.34;7354841;19;19922;-68
2023/01/05 09:33:47;;;;;;;;;;;;;;;13.35;93.88;101611.16;7357434;19;19942;-69
2023/01/05 09:36:15;;;;;;;;;;;;;;;13.36;94.41;101610.16;7353490;19;20631;-68
2023/01/05 09:38:47;;;;;;;;;;;;;;;13.37;93.83;101611.81;7354198;19;21187;-69
2023/01/05 09:41:19;;;;;;;;;;;;;;;13.42;93.81;101609.53;7358000;19;19927;-68
2023/01/05 09:43:48;;;;;;;;;;;;;;;13.45;93.73;101609.25;7356692;19;19943;-68
2023/01/05 09:46:17;;;;;;;;;;;;;;;13.43;93.49;101605.09;7355751;19;19931;-67
2023/01/05 09:48:46;;;;;;;;;;;;;;;13.47;93.62;101609.09;7357914;19;19927;-68
2023/01/05 09:51:13;;;;;;;;;;;;;;;13.49;93.50;101602.69;7356404;19;19922;-68
2023/01/05 09:53:40;;;;;;;;;;;;;;;13.51;93.46;101605.97;7355152;19;20422;-68
2023/01/05 09:56:10;;;;;;;;;;;;;;;13.53;93.77;101598.75;7358126;19;19927;-67
2023/01/05 09:58:41;;;;;;;;;;;;;;;13.60;93.99;101594.50;7355041;19;19933;-68
2023/01/05 10:01:12;;;;;;;;;;;;;;;13.65;93.47;101591.41;7357188;19;19915;-67
2023/01/05 10:03:42;;;;;;;;;;;;;;;13.67;93.24;101589.41;7356883;19;19979;-68
2023/01/05 10:06:33;;;;;;;;;;;;;;;13.74;93.45;101587.00;7355887;19;21748;-68
2023/01/05 10:09:02;;;;;;;;;;;;;;;13.75;93.14;101592.13;7357038;19;19976;-68
2023/01/05 10:14:04;;;;;;;;;;;;;;;13.71;92.45;101599.53;7357393;19;19949;-67
2023/01/05 10:16:31;;;;;;;;;;;;;;;13.75;92.46;101604.53;7358708;19;19923;-68
2023/01/05 10:19:00;;;;;;;;;;;;;;;13.75;92.55;101599.25;7357291;19;20324;-68
2023/01/05 10:21:31;;;;;;;;;;;;;;;13.77;92.64;101603.38;7351509;19;20344;-68
2023/01/05 10:23:59;;;;;;;;;;;;;;;13.82;92.72;101608.19;7353626;19;19951;-68
2023/01/05 10:26:30;;;;;;;;;;;;;;;13.82;92.23;101605.56;7357394;19;19994;-68
2023/01/05 10:29:21;;;;;;;;;;;;;;;13.90;92.36;101617.03;7355031;19;20278;-68
2023/01/05 10:31:51;;;;;;;;;;;;;;;13.95;92.03;101606.81;7354783;19;20440;-69
2023/01/05 10:34:18;;;;;;;;;;;;;;;13.98;91.86;101605.66;7357046;19;19931;-68
2023/01/05 10:36:54;;;;;;;;;;;;;;;14.01;91.40;101602.72;7351671;19;19914;-71
2023/01/05 10:39:46;;;;;;;;;;;;;;;14.05;91.40;101609.38;7356564;19;19923;-67
2023/01/05 10:42:24;;;;;;;;;;;;;;;14.06;91.27;101603.94;7350751;19;19945;-68
2023/01/05 10:44:52;;;;;;;;;;;;;;;14.11;91.70;101606.94;7355811;19;20137;-68
2023/01/05 10:47:20;;;;;;;;;;;;;;;14.12;91.06;101603.28;7353512;19;19927;-67
2023/01/05 10:49:47;;;;;;;;;;;;;;;14.13;90.74;101612.88;7355845;19;19932;-67
2023/01/05 10:52:16;;;;;;;;;;;;;;;14.13;90.55;101612.06;7351444;19;19919;-68
2023/01/05 10:54:47;;;;;;;;;;;;;;;14.11;90.34;101606.94;7355356;19;19938;-68
2023/01/05 10:57:17;;;;;;;;;;;;;;;14.12;90.61;101605.91;7355611;19;20384;-68
2023/01/05 10:59:48;;;;;;;;;;;;;;;14.14;90.68;101603.97;7353187;19;19926;-69
2023/01/05 11:02:15;;;;;;;;;;;;;;;14.19;90.80;101597.38;7355087;19;20806;-68
2023/01/05 11:04:46;;;;;;;;;;;;;;;14.24;90.38;101603.00;7353288;19;19930;-68
2023/01/05 11:07:13;;;;;;;;;;;;;;;14.26;90.05;101590.47;7351198;19;19994;-69
2023/01/05 11:09:42;;;;;;;;;;;;;;;14.28;90.09;101599.88;7357102;19;20400;-68
2023/01/05 11:12:14;;;;;;;;;;;;;;;14.33;89.88;101596.75;7355689;19;20030;-68
2023/01/05 11:14:43;;;;;;;;;;;;;;;14.38;89.81;101595.34;7355177;19;19938;-68
2023/01/05 11:17:15;;;;;;;;;;;;;;;14.46;89.74;101592.75;7356118;19;19927;-68
2023/01/05 11:19:45;;;;;;;;;;;;;;;14.52;89.08;101580.69;7355011;19;20297;-68
2023/01/05 11:22:17;;;;;;;;;;;;;;;14.58;89.37;101579.22;7353260;19;19915;-68
2023/01/05 11:24:47;;;;;;;;;;;;;;;14.65;92.17;101575.75;7356315;19;19926;-68
2023/01/05 11:27:17;;;;;;;;;;;;;;;14.66;91.16;101580.06;7355574;19;19955;-68
2023/01/05 11:29:45;;;;;;;;;;;;;;;14.71;90.45;101582.22;7355472;19;19922;-68
2023/01/05 11:32:12;;;;;;;;;;;;;;;14.71;89.09;101574.28;7353638;19;19923;-67
2023/01/05 11:34:42;;;;;;;;;;;;;;;14.73;89.19;101572.31;7353491;19;19923;-69
2023/01/05 11:37:11;;;;;;;;;;;;;;;14.76;89.00;101571.97;7349508;19;19938;-69
2023/01/05 11:39:39;;;;;;;;;;;;;;;14.76;89.08;101559.56;7354192;19;20026;-68
2023/01/05 11:42:08;;;;;;;;;;;;;;;14.78;88.53;101570.81;7351793;19;19914;-68
2023/01/05 11:44:36;;;;;;;;;;;;;;;14.78;88.07;101562.88;7352856;19;19944;-68
2023/01/05 11:47:04;;;;;;;;;;;;;;;14.77;87.74;101563.06;7354859;19;19931;-68
2023/01/05 11:49:32;;;;;;;;;;;;;;;14.77;87.81;101558.59;7354287;19;20316;-69
2023/01/05 11:51:59;;;;;;;;;;;;;;;14.79;87.87;101561.06;7351046;19;19922;-67
2023/01/05 11:54:30;;;;;;;;;;;;;;;14.78;87.49;101549.63;7356238;19;21121;-68
2023/01/05 11:57:00;;;;;;;;;;;;;;;14.75;87.43;101547.31;7359741;19;19936;-68
2023/01/05 11:59:28;;;;;;;;;;;;;;;14.75;87.48;101552.59;7359383;19;19949;-68
2023/01/05 12:01:56;;;;;;;;;;;;;;;14.74;86.77;101544.81;7361951;19;19931;-68
2023/01/05 12:04:32;;;;;;;;;;;;;;;14.72;87.05;101547.66;7360536;19;19930;-68
2023/01/05 12:07:02;;;;;;;;;;;;;;;14.70;86.62;101546.97;7359057;19;19948;-67
2023/01/05 12:09:30;;;;;;;;;;;;;;;14.70;86.91;101541.66;7358278;19;20501;-67
2023/01/05 12:12:04;;;;;;;;;;;;;;;14.75;86.77;101538.53;7360233;19;19923;-68
2023/01/05 12:14:34;;;;;;;;;;;;;;;14.79;86.80;101545.16;7360999;19;20287;-69
2023/01/05 12:17:07;;;;;;;;;;;;;;;14.83;86.96;101525.31;7361054;19;19922;-71
2023/01/05 12:19:38;;;;;;;;;;;;;;;14.85;86.33;101524.16;7361934;19;19919;-68
2023/01/05 12:22:06;;;;;;;;;;;;;;;14.86;86.46;101514.38;7356417;19;19998;-68
2023/01/05 12:24:37;;;;;;;;;;;;;;;14.91;86.41;101522.66;7360442;19;19926;-68
2023/01/05 12:27:07;;;;;;;;;;;;;;;14.94;85.72;101511.72;7359702;19;19922;-67
2023/01/05 12:29:45;;;;;;;;;;;;;;;14.95;85.17;101521.34;7359696;19;19947;-67
2023/01/05 12:32:35;;;;;;;;;;;;;;;14.99;85.12;101520.00;7360038;19;19923;-68
2023/01/05 12:35:26;;;;;;;;;;;;;;;15.03;85.38;101513.41;7353575;19;20471;-68
2023/01/05 12:37:56;;;;;;;;;;;;;;;15.06;85.35;101509.59;7357033;19;19915;-67
2023/01/05 12:40:27;;;;;;;;;;;;;;;15.04;84.67;101503.59;7356931;19;20221;-67
2023/01/05 12:42:57;;;;;;;;;;;;;;;15.04;84.38;101501.78;7360161;19;20149;-68
2023/01/05 12:45:27;;;;;;;;;;;;;;;15.05;84.75;101502.63;7358463;19;19930;-67
2023/01/05 12:48:04;;;;;;;;;;;;;;;15.03;84.29;101499.31;7360260;19;21634;-67
2023/01/05 12:50:36;;;;;;;;;;;;;;;15.01;85.16;101496.00;7355537;19;19922;-68
2023/01/05 12:53:12;;;;;;;;;;;;;;;15.01;85.15;101498.66;7360406;19;21657;-68
2023/01/05 12:55:42;;;;;;;;;;;;;;;14.99;85.18;101489.03;7359174;19;19910;-68
2023/01/05 12:58:13;;;;;;;;;;;;;;;14.97;85.40;101491.03;7359107;19;20346;-68
2023/01/05 13:00:44;;;;;;;;;;;;;;;14.92;85.06;101488.06;7355563;19;20373;-67
2023/01/05 13:03:18;;;;;;;;;;;;;;;14.94;84.79;101482.56;7355280;19;19919;-69
2023/01/05 13:05:45;;;;;;;;;;;;;;;14.95;84.22;101477.13;7354312;19;20153;-68
2023/01/05 13:08:16;;;;;;;;;;;;;;;14.93;83.81;101473.78;7355420;19;19922;-69
2023/01/05 13:10:47;;;;;;;;;;;;;;;14.93;84.11;101470.34;7355152;19;21617;-67
2023/01/05 13:13:17;;;;;;;;;;;;;;;14.92;83.94;101476.63;7357266;19;20667;-68
2023/01/05 13:15:51;;;;;;;;;;;;;;;14.92;83.54;101466.84;7357205;19;19923;-67
2023/01/05 13:18:20;;;;;;;;;;;;;;;14.92;83.39;101466.84;7358009;19;19994;-67
2023/01/05 13:20:50;;;;;;;;;;;;;;;14.95;83.32;101465.69;7353500;19;19926;-68